Time;durP1;ratioP1;P1;durP2;ratioP2;P2;SDS_P1;SDS_P2;PMS_P1;PMS_P2;Temp;Humidity;BMP_temperature;BMP_pressure;BME280_temperature;BME280_humidity;BME280_pressure;Samples;Min_cycle;Max_cycle;Signal;HPM_P1;HPM_P2
2021/03/02 00:04:22;;;;;;;54.87;23.83;;;;;;;1.04;82.02;100541.52;258121;1110;23164;-71
2021/03/02 00:09:25;;;;;;;53.43;23.13;;;;;;;1.13;82.06;100544.88;258023;1112;23256;-71
2021/03/02 00:14:28;;;;;;;55.70;22.53;;;;;;;1.18;81.97;100539.88;258220;1111;23135;-71
2021/03/02 00:19:40;;;;;;;54.77;23.50;;;;;;;1.26;81.59;100544.22;258223;1110;23183;-71
2021/03/02 00:24:45;;;;;;;47.23;21.57;;;;;;;1.38;82.33;100545.39;258301;1112;23261;-71
2021/03/02 00:29:47;;;;;;;51.93;22.57;;;;;;;1.41;81.95;100550.30;258662;1111;23050;-71
2021/03/02 00:34:50;;;;;;;56.63;23.40;;;;;;;1.46;82.01;100547.94;258249;1110;23044;-71
2021/03/02 00:39:52;;;;;;;54.97;24.37;;;;;;;1.50;82.18;100545.76;258225;1110;23081;-71
2021/03/02 00:44:54;;;;;;;48.10;22.00;;;;;;;1.54;82.11;100542.55;258205;1112;27762;-71
2021/03/02 00:49:56;;;;;;;45.90;22.10;;;;;;;1.51;81.98;100536.81;258142;1112;23110;-71
2021/03/02 00:54:59;;;;;;;41.07;18.13;;;;;;;1.49;81.36;100525.63;258140;1111;23126;-72
2021/03/02 01:00:05;;;;;;;59.77;23.87;;;;;;;1.45;80.98;100519.08;258173;1111;23260;-71
2021/03/02 01:05:08;;;;;;;50.67;21.23;;;;;;;1.47;80.95;100512.61;258156;1112;23254;-72
2021/03/02 01:10:12;;;;;;;49.47;22.73;;;;;;;1.49;80.85;100515.87;258105;1111;23260;-71
2021/03/02 01:15:15;;;;;;;39.67;16.63;;;;;;;1.46;81.13;100508.32;258258;1112;23414;-72
2021/03/02 01:20:17;;;;;;;48.37;21.00;;;;;;;1.35;80.44;100506.16;258191;1112;26459;-72
2021/03/02 01:25:21;;;;;;;45.97;22.47;;;;;;;1.19;80.75;100502.73;258178;1111;23119;-73
2021/03/02 01:30:25;;;;;;;49.13;20.87;;;;;;;1.04;81.13;100498.48;258146;1112;23211;-72
2021/03/02 01:35:28;;;;;;;62.30;26.47;;;;;;;0.96;81.41;100496.73;258197;1111;24579;-72
2021/03/02 01:40:30;;;;;;;65.43;29.03;;;;;;;0.98;81.35;100494.72;258128;1112;23350;-71
2021/03/02 01:45:32;;;;;;;61.43;26.17;;;;;;;0.98;81.87;100500.83;258178;1110;23343;-70
2021/03/02 01:50:34;;;;;;;60.27;25.33;;;;;;;0.92;81.64;100503.38;258146;1111;23099;-71
2021/03/02 01:55:36;;;;;;;57.67;22.60;;;;;;;0.88;81.48;100497.63;258178;1111;23055;-71
2021/03/02 02:00:39;;;;;;;55.63;22.00;;;;;;;0.87;82.14;100487.27;258111;1111;23035;-72
2021/03/02 02:05:49;;;;;;;52.95;23.05;;;;;;;0.79;82.02;100475.80;258336;1112;23374;-72
2021/03/02 02:11:01;;;;;;;54.30;22.00;;;;;;;0.69;82.33;100480.55;258405;1112;26539;-72
2021/03/02 02:16:08;;;;;;;61.17;24.87;;;;;;;0.66;82.26;100468.53;258248;1111;23074;-71
2021/03/02 02:21:15;;;;;;;58.33;25.50;;;;;;;0.65;82.53;100461.61;258250;1110;23052;-71
2021/03/02 02:26:45;;;;;;;48.97;22.20;;;;;;;0.57;82.68;100466.16;258377;1111;23208;-70
2021/03/02 02:31:49;;;;;;;48.98;19.87;;;;;;;0.50;82.95;100468.70;258198;1110;23158;-72
2021/03/02 02:36:55;;;;;;;48.10;20.80;;;;;;;0.33;83.02;100465.41;258129;1110;26095;-72
2021/03/02 02:41:58;;;;;;;47.53;20.70;;;;;;;0.20;82.95;100459.91;258153;1112;23119;-72
2021/03/02 02:47:01;;;;;;;46.83;20.20;;;;;;;0.18;83.10;100459.28;258162;1112;23251;-72
2021/03/02 02:52:05;;;;;;;43.77;18.27;;;;;;;0.08;83.28;100465.61;258211;1112;23239;-71
2021/03/02 02:57:09;;;;;;;47.17;19.13;;;;;;;0.03;83.16;100462.71;258115;1111;23040;-72
2021/03/02 03:02:21;;;;;;;50.43;22.20;;;;;;;0.01;83.96;100456.78;258177;1111;23116;-71
2021/03/02 03:07:29;;;;;;;38.70;17.40;;;;;;;0.02;84.29;100462.89;258268;1111;23177;-71
2021/03/02 03:12:47;;;;;;;49.07;19.13;;;;;;;0.02;84.63;100463.70;258126;1111;23042;-71
2021/03/02 03:17:52;;;;;;;48.00;20.40;;;;;;;0.02;84.34;100468.97;258258;1110;24523;-71
2021/03/02 03:22:56;;;;;;;43.83;19.63;;;;;;;0.03;84.02;100465.34;258144;1110;23274;-71
2021/03/02 03:28:04;;;;;;;49.60;21.50;;;;;;;-0.04;84.27;100467.86;258260;1111;23033;-72
2021/03/02 03:33:10;;;;;;;51.17;21.27;;;;;;;-0.05;83.94;100471.48;258370;1111;23103;-71
2021/03/02 03:38:12;;;;;;;52.20;22.40;;;;;;;-0.02;84.11;100478.23;258467;1110;23090;-71
2021/03/02 03:43:14;;;;;;;49.67;19.43;;;;;;;-0.01;84.78;100474.60;258157;1110;23626;-71
2021/03/02 03:48:16;;;;;;;61.57;23.10;;;;;;;0.02;84.10;100474.24;258122;1112;23015;-70
2021/03/02 03:53:20;;;;;;;38.50;17.43;;;;;;;0.06;83.76;100470.25;258200;1112;23019;-71
2021/03/02 03:58:25;;;;;;;45.60;20.17;;;;;;;0.07;84.44;100463.16;258305;1111;23367;-70
2021/03/02 04:03:30;;;;;;;60.17;22.40;;;;;;;0.05;84.41;100463.34;258289;1112;23033;-71
2021/03/02 04:08:33;;;;;;;53.10;21.67;;;;;;;0.17;84.02;100463.75;258354;1111;23175;-70
2021/03/02 04:13:35;;;;;;;59.80;23.45;;;;;;;0.25;84.07;100463.68;258156;1112;23041;-71
2021/03/02 04:18:38;;;;;;;43.63;19.03;;;;;;;0.26;84.26;100460.02;258307;1112;23084;-71
2021/03/02 04:23:40;;;;;;;51.97;21.80;;;;;;;0.21;84.41;100458.92;258128;1112;23052;-71
2021/03/02 04:28:42;;;;;;;54.07;21.53;;;;;;;0.17;83.70;100466.38;258101;1111;23056;-71
2021/03/02 04:33:45;;;;;;;70.37;25.93;;;;;;;0.20;83.42;100465.19;258121;1112;23798;-70
2021/03/02 04:38:48;;;;;;;57.97;23.60;;;;;;;0.21;83.81;100462.40;258308;1111;26138;-70
2021/03/02 04:43:50;;;;;;;47.63;20.50;;;;;;;0.19;84.13;100463.56;258122;1111;23106;-71
2021/03/02 04:48:52;;;;;;;54.90;23.57;;;;;;;0.28;84.33;100462.48;258377;1112;23059;-71
2021/03/02 04:53:54;;;;;;;49.20;22.70;;;;;;;0.36;84.02;100457.13;258158;1112;23170;-71
2021/03/02 04:58:56;;;;;;;49.07;21.40;;;;;;;0.27;83.83;100459.03;258153;1112;23376;-72
2021/03/02 05:03:58;;;;;;;59.83;24.17;;;;;;;0.15;83.66;100450.75;258112;1111;23258;-72
2021/03/02 05:09:01;;;;;;;55.65;20.50;;;;;;;0.07;84.15;100450.83;258181;1112;23029;-71
2021/03/02 05:14:04;;;;;;;51.47;22.10;;;;;;;0.03;84.45;100448.70;258147;1112;23094;-72
2021/03/02 05:19:06;;;;;;;52.50;20.40;;;;;;;-0.08;84.59;100452.59;258229;1111;23089;-72
2021/03/02 05:24:08;;;;;;;53.47;22.20;;;;;;;-0.12;84.27;100451.31;258281;1112;23090;-72
2021/03/02 05:29:11;;;;;;;61.27;24.33;;;;;;;-0.24;84.10;100449.09;258234;1110;23052;-71
2021/03/02 05:34:13;;;;;;;60.97;24.67;;;;;;;-0.29;84.99;100454.06;258237;1112;23102;-72
2021/03/02 05:39:16;;;;;;;68.07;24.50;;;;;;;-0.20;85.21;100460.08;258312;1111;23005;-73
2021/03/02 05:44:19;;;;;;;60.70;23.65;;;;;;;-0.19;85.51;100457.27;258164;1112;23004;-70
2021/03/02 05:49:21;;;;;;;64.13;24.17;;;;;;;-0.14;85.00;100464.66;258254;1111;23049;-71
2021/03/02 05:54:24;;;;;;;76.57;27.17;;;;;;;-0.12;85.49;100461.84;258363;1112;23375;-72
2021/03/02 05:59:26;;;;;;;106.40;33.20;;;;;;;-0.09;85.09;100454.39;258199;1110;23231;-71
2021/03/02 06:04:28;;;;;;;70.10;26.30;;;;;;;-0.05;84.63;100444.33;258181;1112;23118;-71
2021/03/02 06:09:30;;;;;;;73.80;27.73;;;;;;;-0.02;85.23;100436.87;258222;1111;23247;-71
2021/03/02 06:14:36;;;;;;;80.13;29.77;;;;;;;0.07;84.64;100442.08;258295;1110;24517;-72
2021/03/02 06:19:46;;;;;;;90.53;34.83;;;;;;;0.19;84.50;100445.92;258244;1111;23098;-70
2021/03/02 06:24:48;;;;;;;83.80;32.15;;;;;;;0.28;85.04;100451.93;258295;1112;23048;-71
2021/03/02 06:30:13;;;;;;;86.90;32.50;;;;;;;0.39;84.23;100462.03;258128;1111;24643;-72
2021/03/02 06:35:42;;;;;;;89.45;33.10;;;;;;;0.55;85.25;100455.80;258206;1111;23115;-72
2021/03/02 06:40:46;;;;;;;89.90;34.37;;;;;;;0.51;84.31;100457.16;258430;1111;23843;-71
2021/03/02 06:45:50;;;;;;;79.73;30.27;;;;;;;0.44;84.07;100451.78;258929;1110;23110;-71
2021/03/02 06:50:52;;;;;;;63.90;26.27;;;;;;;0.46;84.07;100462.14;258778;1111;22994;-71
2021/03/02 06:56:11;;;;;;;88.47;34.53;;;;;;;0.58;84.09;100460.70;258555;1112;23003;-72
2021/03/02 07:01:13;;;;;;;77.33;31.13;;;;;;;0.68;84.16;100470.98;259903;1111;23222;-71
2021/03/02 07:06:17;;;;;;;73.40;30.13;;;;;;;0.65;83.09;100472.16;259836;1112;23055;-71
2021/03/02 07:11:19;;;;;;;114.53;41.77;;;;;;;0.83;84.80;100463.89;258957;1111;23695;-71
2021/03/02 07:16:22;;;;;;;93.23;36.67;;;;;;;0.99;83.96;100470.81;258443;1112;23458;-71
2021/03/02 07:21:26;;;;;;;98.33;37.07;;;;;;;0.97;82.68;100471.98;258705;1112;23033;-71
2021/03/02 07:26:29;;;;;;;81.20;33.60;;;;;;;1.07;83.20;100467.23;258510;1112;23055;-71
2021/03/02 07:31:31;;;;;;;80.50;34.00;;;;;;;1.12;83.66;100482.52;258601;1112;23213;-71
2021/03/02 07:36:36;;;;;;;99.70;38.57;;;;;;;1.24;83.85;100477.59;259142;1112;24516;-70
2021/03/02 07:41:41;;;;;;;115.00;40.47;;;;;;;1.46;83.92;100476.63;258949;1110;23215;-71
2021/03/02 07:46:46;;;;;;;78.73;33.83;;;;;;;1.56;82.49;100486.08;259815;1111;23569;-71
2021/03/02 07:52:01;;;;;;;90.40;37.63;;;;;;;1.75;83.64;100482.83;258676;1110;23103;-71
2021/03/02 07:57:13;;;;;;;73.60;30.10;;;;;;;2.02;82.41;100483.08;258713;1110;23200;-71
2021/03/02 08:02:20;;;;;;;87.10;35.75;;;;;;;2.00;82.75;100485.08;258433;1111;23244;-70
2021/03/02 08:07:25;;;;;;;75.83;32.97;;;;;;;2.17;82.46;100482.98;258529;1110;23010;-71
2021/03/02 08:12:33;;;;;;;87.10;35.80;;;;;;;2.18;81.71;100489.91;258749;1110;22998;-71
2021/03/02 08:17:35;;;;;;;89.87;39.53;;;;;;;2.40;82.19;100482.77;258470;1112;23164;-72
2021/03/02 08:22:40;;;;;;;77.23;34.23;;;;;;;2.47;81.90;100488.91;258629;1110;23038;-71
2021/03/02 08:28:09;;;;;;;72.53;33.93;;;;;;;2.77;83.14;100482.59;258552;1112;23368;-71
2021/03/02 08:33:18;;;;;;;89.57;36.63;;;;;;;3.19;82.86;100478.94;258433;1111;23089;-70
2021/03/02 08:38:22;;;;;;;96.60;43.10;;;;;;;3.37;80.56;100474.91;259030;1110;26409;-70
2021/03/02 08:43:25;;;;;;;94.00;41.60;;;;;;;3.58;81.95;100469.48;258800;1110;23454;-71
2021/03/02 08:48:29;;;;;;;90.17;38.27;;;;;;;3.65;80.46;100479.28;258804;1110;23217;-71
2021/03/02 08:53:40;;;;;;;86.00;40.45;;;;;;;3.90;81.48;100477.70;258541;1110;23191;-71
2021/03/02 08:58:45;;;;;;;92.87;42.13;;;;;;;4.53;81.46;100484.41;258393;1111;23096;-71
2021/03/02 09:03:48;;;;;;;87.23;38.80;;;;;;;4.83;80.91;100497.24;258450;1111;26163;-71
2021/03/02 09:08:56;;;;;;;95.00;41.97;;;;;;;4.89;79.72;100484.97;258906;1110;23033;-71
2021/03/02 09:14:05;;;;;;;87.17;42.23;;;;;;;5.11;79.91;100488.17;258996;1111;23050;-72
2021/03/02 09:19:09;;;;;;;80.47;37.77;;;;;;;5.35;80.38;100496.46;258753;1111;23082;-71
2021/03/02 09:24:26;;;;;;;91.03;41.27;;;;;;;5.21;78.40;100490.38;258833;1110;23035;-71
2021/03/02 09:29:33;;;;;;;79.17;38.80;;;;;;;5.07;78.44;100484.30;258536;1110;23049;-71
2021/03/02 09:34:40;;;;;;;93.33;42.27;;;;;;;5.13;79.07;100486.11;258718;1111;23246;-71
2021/03/02 09:40:01;;;;;;;78.30;36.03;;;;;;;5.20;78.39;100478.92;258556;1111;23587;-71
2021/03/02 09:45:10;;;;;;;79.53;37.25;;;;;;;5.15;78.16;100486.73;258582;1110;23083;-70
2021/03/02 09:50:14;;;;;;;80.87;38.30;;;;;;;5.32;79.07;100484.41;258748;1110;23002;-71
2021/03/02 09:55:23;;;;;;;83.87;40.23;;;;;;;5.63;79.55;100480.16;258610;1112;23242;-71
2021/03/02 10:00:30;;;;;;;60.00;31.23;;;;;;;6.01;79.91;100475.86;258735;1111;23023;-70
2021/03/02 10:05:38;;;;;;;61.87;29.90;;;;;;;6.29;78.89;100476.22;258782;1111;23106;-72
2021/03/02 10:10:41;;;;;;;61.07;31.03;;;;;;;6.58;78.08;100481.91;258892;1110;23033;-72
2021/03/02 10:15:43;;;;;;;57.60;30.40;;;;;;;6.82;77.67;100490.08;258660;1110;23015;-72
2021/03/02 10:21:06;;;;;;;55.30;27.93;;;;;;;7.00;76.81;100494.59;259161;1112;23045;-73
2021/03/02 10:26:10;;;;;;;48.40;25.63;;;;;;;7.21;76.28;100493.33;258886;1110;23094;-71
2021/03/02 10:31:12;;;;;;;48.13;24.77;;;;;;;7.45;76.60;100493.44;259026;1110;23156;-73
2021/03/02 10:36:26;;;;;;;45.17;23.60;;;;;;;7.66;75.34;100502.80;258673;1111;23139;-72
2021/03/02 10:41:28;;;;;;;49.95;26.65;;;;;;;7.74;74.49;100483.81;258703;1110;23075;-72
2021/03/02 10:46:31;;;;;;;46.67;25.80;;;;;;;7.93;74.78;100475.73;258601;1110;23034;-72
2021/03/02 10:51:34;;;;;;;48.60;24.20;;;;;;;8.10;74.21;100463.36;258746;1110;23055;-73
2021/03/02 10:56:37;;;;;;;45.60;25.13;;;;;;;8.25;73.94;100446.87;258354;1112;23054;-73
2021/03/02 11:01:39;;;;;;;46.70;25.73;;;;;;;8.44;73.17;100439.56;259037;1111;23040;-72
2021/03/02 11:06:44;;;;;;;41.10;21.87;;;;;;;8.64;72.93;100428.53;259155;1112;23075;-71
2021/03/02 11:11:46;;;;;;;40.30;21.47;;;;;;;8.87;72.71;100433.03;258976;1110;26114;-76
2021/03/02 11:16:48;;;;;;;37.90;22.43;;;;;;;9.11;72.36;100424.12;258854;1111;23593;-72
2021/03/02 11:21:50;;;;;;;41.00;22.27;;;;;;;9.38;72.21;100435.07;258715;1112;23242;-71
2021/03/02 11:26:52;;;;;;;41.55;22.25;;;;;;;9.64;72.42;100430.99;258679;1112;23242;-72
2021/03/02 11:31:56;;;;;;;36.57;20.90;;;;;;;9.72;70.11;100425.25;258683;1112;23123;-73
2021/03/02 11:36:58;;;;;;;41.00;21.67;;;;;;;9.82;69.54;100423.77;258570;1112;23040;-72
2021/03/02 11:42:00;;;;;;;33.60;17.95;;;;;;;9.88;69.34;100420.15;258742;1110;23516;-72
2021/03/02 11:47:03;;;;;;;24.87;13.33;;;;;;;10.02;68.62;100418.75;258749;1112;23333;-71
2021/03/02 11:52:05;;;;;;;25.17;14.00;;;;;;;10.18;68.52;100411.75;259073;1111;23186;-71
2021/03/02 11:57:08;;;;;;;25.57;13.47;;;;;;;10.37;68.03;100414.22;259180;1112;23025;-71
2021/03/02 12:02:14;;;;;;;26.03;14.23;;;;;;;10.52;67.21;100411.74;258951;1112;23233;-72
2021/03/02 12:07:16;;;;;;;23.50;13.40;;;;;;;10.59;66.77;100416.90;258630;1112;23046;-72
2021/03/02 12:12:18;;;;;;;22.25;13.05;;;;;;;10.68;66.73;100409.27;258717;1110;23482;-72
2021/03/02 12:17:21;;;;;;;15.90;10.00;;;;;;;10.76;65.84;100403.47;258638;1110;23075;-71
2021/03/02 12:22:25;;;;;;;15.70;10.50;;;;;;;10.90;65.62;100409.27;258801;1111;23118;-71
2021/03/02 12:27:27;;;;;;;16.90;9.40;;;;;;;10.98;64.94;100400.75;258590;1111;26099;-71
2021/03/02 12:32:30;;;;;;;16.95;9.75;;;;;;;11.09;64.89;100401.69;258504;1112;23049;-71
2021/03/02 12:37:34;;;;;;;15.20;8.50;;;;;;;11.17;63.97;100395.88;258608;1112;26454;-71
2021/03/02 12:42:37;;;;;;;14.13;8.37;;;;;;;11.27;63.92;100387.92;258686;1111;23049;-71
2021/03/02 12:47:43;;;;;;;14.15;8.35;;;;;;;11.38;63.80;100388.04;258684;1110;23030;-72
2021/03/02 12:52:46;;;;;;;15.10;8.03;;;;;;;11.41;62.83;100391.01;258681;1111;23089;-71
2021/03/02 12:57:50;;;;;;;13.67;8.43;;;;;;;11.43;62.82;100380.84;258463;1111;23270;-72
2021/03/02 13:02:58;;;;;;;14.13;8.47;;;;;;;11.44;61.75;100379.79;258543;1112;23388;-70
2021/03/02 13:08:02;;;;;;;12.10;6.87;;;;;;;11.50;61.82;100379.81;258791;1111;23211;-71
2021/03/02 13:13:04;;;;;;;10.17;6.43;;;;;;;11.55;59.93;100377.98;258914;1111;23437;-71
2021/03/02 13:18:08;;;;;;;13.80;7.90;;;;;;;11.60;60.20;100377.23;260500;1112;23165;-71
2021/03/02 13:23:10;;;;;;;12.43;7.37;;;;;;;11.62;60.32;100367.84;259280;1110;23059;-71
2021/03/02 13:28:13;;;;;;;14.13;7.43;;;;;;;11.73;60.62;100371.42;258894;1110;23113;-71
2021/03/02 13:33:17;;;;;;;12.63;7.20;;;;;;;11.78;59.56;100376.84;258588;1111;23060;-70
2021/03/02 13:38:20;;;;;;;12.70;7.70;;;;;;;11.84;59.84;100368.83;259385;1111;23063;-70
2021/03/02 13:43:24;;;;;;;16.20;8.33;;;;;;;11.92;59.94;100369.16;258634;1110;23417;-70
2021/03/02 13:48:31;;;;;;;17.27;9.97;;;;;;;11.93;58.86;100367.27;258925;1110;23030;-72
2021/03/02 13:53:36;;;;;;;15.23;9.20;;;;;;;11.93;59.43;100362.73;258647;1111;26225;-70
2021/03/02 13:58:41;;;;;;;20.33;10.43;;;;;;;11.93;58.89;100359.22;258712;1112;23090;-70
2021/03/02 14:03:44;;;;;;;21.60;9.77;;;;;;;11.94;58.43;100345.55;258503;1112;22988;-71
2021/03/02 14:08:47;;;;;;;22.30;10.87;;;;;;;11.95;58.87;100349.07;258600;1110;23016;-72
2021/03/02 14:13:50;;;;;;;21.63;10.37;;;;;;;11.93;58.37;100341.24;258469;1111;23458;-73
2021/03/02 14:18:56;;;;;;;27.80;9.17;;;;;;;11.90;58.04;100339.05;258640;1111;23039;-71
2021/03/02 14:24:04;;;;;;;22.20;8.67;;;;;;;11.83;57.96;100338.47;258519;1110;23058;-72
2021/03/02 14:29:07;;;;;;;23.00;8.83;;;;;;;11.77;57.02;100328.78;258566;1112;23215;-72
2021/03/02 14:34:09;;;;;;;26.25;10.85;;;;;;;11.72;57.41;100336.78;259082;1110;23058;-73
2021/03/02 14:39:11;;;;;;;22.05;8.90;;;;;;;11.64;57.00;100330.83;258895;1110;23533;-72
2021/03/02 14:44:36;;;;;;;25.80;10.40;;;;;;;11.57;56.85;100319.51;259401;1110;23474;-73
2021/03/02 14:49:52;;;;;;;30.77;11.40;;;;;;;11.53;57.25;100326.45;258607;1112;23076;-71
2021/03/02 14:54:57;;;;;;;28.40;11.60;;;;;;;11.46;57.05;100323.98;258682;1111;23052;-72
2021/03/02 15:00:03;;;;;;;26.57;9.77;;;;;;;11.40;57.15;100319.65;258620;1111;23115;-72
2021/03/02 15:05:10;;;;;;;30.30;11.35;;;;;;;11.33;57.63;100319.02;258727;1111;23186;-72
2021/03/02 15:10:13;;;;;;;30.73;11.23;;;;;;;11.26;57.56;100315.75;259175;1112;23072;-72
2021/03/02 15:15:15;;;;;;;24.13;10.47;;;;;;;11.19;57.55;100315.16;258896;1111;23042;-73
2021/03/02 15:20:17;;;;;;;22.93;10.03;;;;;;;11.07;57.70;100312.64;258859;1111;23056;-72
2021/03/02 15:25:22;;;;;;;21.80;10.10;;;;;;;10.97;57.62;100313.35;258498;1112;23112;-73
2021/03/02 15:30:26;;;;;;;22.90;10.47;;;;;;;10.87;57.95;100307.87;258252;1112;23195;-73
2021/03/02 15:35:28;;;;;;;23.83;11.50;;;;;;;10.76;57.87;100313.13;258252;1111;23116;-72
2021/03/02 15:40:30;;;;;;;20.80;10.37;;;;;;;10.65;58.30;100303.36;258190;1112;23122;-73
2021/03/02 15:45:34;;;;;;;22.37;11.30;;;;;;;10.52;58.33;100303.73;258169;1111;23032;-72
2021/03/02 15:50:41;;;;;;;23.93;11.03;;;;;;;10.36;58.69;100302.76;258470;1111;23255;-73
2021/03/02 15:55:46;;;;;;;23.15;11.75;;;;;;;10.21;58.43;100293.45;258216;1111;23132;-73
2021/03/02 16:00:50;;;;;;;21.20;11.33;;;;;;;10.07;58.85;100290.33;258201;1112;26440;-73
2021/03/02 16:05:56;;;;;;;20.57;11.27;;;;;;;9.92;59.04;100295.47;258183;1111;23216;-73
2021/03/02 16:11:02;;;;;;;26.00;12.05;;;;;;;9.77;59.14;100298.73;258528;1111;23202;-72
2021/03/02 16:16:25;;;;;;;21.73;11.40;;;;;;;9.59;59.16;100295.25;258157;1111;23103;-72
2021/03/02 16:21:36;;;;;;;26.90;12.65;;;;;;;9.41;59.83;100299.00;258194;1112;23255;-72
2021/03/02 16:26:52;;;;;;;30.27;13.03;;;;;;;9.21;60.18;100294.11;258410;1110;23040;-72
2021/03/02 16:31:56;;;;;;;29.87;14.87;;;;;;;9.05;60.62;100290.38;258252;1110;23160;-73
2021/03/02 16:37:00;;;;;;;38.23;19.37;;;;;;;8.87;60.98;100293.23;258222;1110;24651;-72
2021/03/02 16:42:03;;;;;;;35.23;18.67;;;;;;;8.65;61.36;100296.59;258498;1111;23053;-73
2021/03/02 16:47:06;;;;;;;33.20;16.10;;;;;;;8.43;61.55;100299.06;258284;1111;23039;-75
2021/03/02 16:52:21;;;;;;;34.30;17.47;;;;;;;8.24;61.80;100295.77;258452;1111;23037;-74
2021/03/02 16:57:47;;;;;;;39.10;19.10;;;;;;;8.05;62.12;100295.88;258372;1112;23035;-72
2021/03/02 17:03:02;;;;;;;42.17;20.03;;;;;;;7.84;62.51;100307.97;258342;1112;23040;-73
2021/03/02 17:08:08;;;;;;;39.57;20.73;;;;;;;7.69;63.50;100316.45;258534;1111;23126;-72
2021/03/02 17:13:11;;;;;;;40.83;19.17;;;;;;;7.60;64.04;100312.48;258358;1112;23047;-72
2021/03/02 17:18:14;;;;;;;34.23;18.47;;;;;;;7.47;64.21;100308.19;258321;1110;23106;-74
2021/03/02 17:23:16;;;;;;;32.17;17.27;;;;;;;7.32;64.90;100305.95;258479;1110;23236;-72
2021/03/02 17:28:18;;;;;;;34.80;18.97;;;;;;;7.16;64.90;100302.11;258585;1110;23184;-73
2021/03/02 17:33:20;;;;;;;43.47;20.30;;;;;;;7.02;65.36;100305.98;258366;1111;23028;-73
2021/03/02 17:38:23;;;;;;;39.25;19.00;;;;;;;6.90;65.85;100299.80;258364;1112;23030;-73
2021/03/02 17:43:25;;;;;;;55.60;25.37;;;;;;;6.78;65.54;100297.11;258456;1111;23020;-72
2021/03/02 17:48:26;;;;;;;53.70;27.60;;;;;;;6.66;65.90;100303.20;258311;1110;23129;-73
2021/03/02 17:53:29;;;;;;;58.70;29.67;;;;;;;6.55;65.93;100290.64;258417;1112;23081;-73
2021/03/02 17:58:32;;;;;;;62.10;32.40;;;;;;;6.43;66.21;100289.77;258291;1110;23249;-73
2021/03/02 18:03:34;;;;;;;62.37;31.07;;;;;;;6.30;66.75;100290.75;258265;1112;23046;-72
2021/03/02 18:08:36;;;;;;;63.83;31.60;;;;;;;6.13;67.00;100283.34;258181;1111;23047;-73
2021/03/02 18:13:38;;;;;;;60.47;31.60;;;;;;;5.96;67.43;100288.42;258250;1111;23386;-72
2021/03/02 18:18:40;;;;;;;65.50;31.13;;;;;;;5.79;67.19;100282.03;258296;1110;23102;-73
2021/03/02 18:23:42;;;;;;;61.83;33.30;;;;;;;5.66;67.97;100286.44;258333;1111;23202;-72
2021/03/02 18:28:44;;;;;;;72.00;35.85;;;;;;;5.58;68.14;100281.42;258227;1111;23262;-73
2021/03/02 18:33:47;;;;;;;73.17;35.90;;;;;;;5.49;68.22;100277.40;258257;1111;26083;-74
2021/03/02 18:38:49;;;;;;;75.15;35.60;;;;;;;5.35;68.72;100286.52;258538;1110;23210;-72
2021/03/02 18:43:51;;;;;;;76.07;36.17;;;;;;;5.20;68.65;100289.48;258296;1112;23475;-73
2021/03/02 18:48:53;;;;;;;72.95;33.85;;;;;;;5.08;69.12;100292.03;258310;1112;23051;-74
2021/03/02 18:53:56;;;;;;;74.30;33.43;;;;;;;5.02;69.50;100300.84;258321;1110;23112;-72
2021/03/02 18:58:58;;;;;;;66.35;31.70;;;;;;;4.99;69.77;100298.61;258326;1111;23102;-72
2021/03/02 19:04:01;;;;;;;60.53;30.13;;;;;;;4.96;70.08;100303.31;258192;1111;26469;-72
2021/03/02 19:09:04;;;;;;;64.03;31.10;;;;;;;4.92;69.97;100301.30;258302;1110;23116;-72
2021/03/02 19:14:06;;;;;;;62.87;29.90;;;;;;;4.85;69.93;100303.98;258373;1110;23046;-74
2021/03/02 19:19:09;;;;;;;54.73;25.87;;;;;;;4.75;69.88;100303.64;258260;1110;23177;-72
2021/03/02 19:24:12;;;;;;;64.13;31.30;;;;;;;4.70;70.48;100298.98;258349;1111;23018;-73
2021/03/02 19:29:14;;;;;;;63.53;30.03;;;;;;;4.69;70.82;100293.89;258258;1110;23203;-73
2021/03/02 19:34:16;;;;;;;56.07;27.43;;;;;;;4.68;71.60;100298.36;258384;1111;23254;-72
2021/03/02 19:39:18;;;;;;;62.60;29.30;;;;;;;4.62;71.31;100289.41;258227;1112;23032;-73
2021/03/02 19:44:20;;;;;;;61.97;29.37;;;;;;;4.52;71.51;100291.71;258179;1112;23486;-73
2021/03/02 19:49:23;;;;;;;59.10;26.50;;;;;;;4.42;71.64;100288.67;258156;1110;23520;-72
2021/03/02 19:54:26;;;;;;;56.37;28.47;;;;;;;4.36;71.48;100297.48;258231;1111;23111;-72
2021/03/02 19:59:32;;;;;;;64.90;32.63;;;;;;;4.34;71.95;100296.86;258302;1110;23053;-72
2021/03/02 20:04:34;;;;;;;62.77;30.20;;;;;;;4.30;72.20;100291.17;258148;1111;23069;-73
2021/03/02 20:09:36;;;;;;;67.75;31.60;;;;;;;4.24;72.36;100298.14;258322;1112;23126;-72
2021/03/02 20:14:50;;;;;;;66.10;30.05;;;;;;;4.14;72.35;100295.12;258344;1110;23109;-71
2021/03/02 20:19:57;;;;;;;68.50;32.07;;;;;;;4.05;72.42;100299.01;258332;1112;23060;-73
2021/03/02 20:24:59;;;;;;;81.30;38.10;;;;;;;3.98;72.31;100298.20;258470;1112;23164;-73
2021/03/02 20:30:06;;;;;;;99.60;45.73;;;;;;;3.88;72.55;100296.79;258471;1110;23049;-72
2021/03/02 20:35:11;;;;;;;116.95;55.55;;;;;;;3.75;72.75;100296.83;258308;1112;23062;-73
2021/03/02 20:40:14;;;;;;;117.03;51.93;;;;;;;3.63;72.28;100303.77;258228;1110;23255;-73
2021/03/02 20:45:16;;;;;;;117.47;52.07;;;;;;;3.51;72.40;100296.43;258362;1112;23197;-72
2021/03/02 20:50:20;;;;;;;125.05;57.65;;;;;;;3.45;72.69;100296.42;258279;1110;23097;-72
2021/03/02 20:55:25;;;;;;;127.87;59.37;;;;;;;3.39;73.37;100296.21;258189;1111;23461;-73
2021/03/02 21:00:27;;;;;;;136.83;60.57;;;;;;;3.32;73.61;100294.59;258227;1111;23657;-74
2021/03/02 21:05:29;;;;;;;139.00;61.67;;;;;;;3.22;72.94;100295.80;258259;1110;23033;-73
2021/03/02 21:10:31;;;;;;;162.05;72.35;;;;;;;3.15;73.68;100287.03;258222;1112;23093;-73
2021/03/02 21:15:33;;;;;;;172.65;78.00;;;;;;;3.04;73.72;100282.34;258197;1112;23062;-73
2021/03/02 21:20:35;;;;;;;189.47;85.70;;;;;;;3.01;73.87;100295.98;258219;1112;26399;-72
2021/03/02 21:25:37;;;;;;;212.30;91.10;;;;;;;2.94;74.16;100295.13;258225;1112;27823;-73
2021/03/02 21:30:39;;;;;;;246.63;103.13;;;;;;;2.85;73.66;100295.31;258172;1112;23011;-71
2021/03/02 21:35:42;;;;;;;277.70;115.40;;;;;;;2.78;73.80;100291.84;258197;1110;23490;-71
2021/03/02 21:40:44;;;;;;;311.27;128.67;;;;;;;2.76;74.63;100293.05;258229;1111;23059;-70
2021/03/02 21:45:48;;;;;;;303.37;130.07;;;;;;;2.71;74.75;100289.20;258134;1111;23088;-72
2021/03/02 21:50:52;;;;;;;298.93;126.97;;;;;;;2.64;74.84;100290.98;258357;1111;23213;-71
2021/03/02 21:55:54;;;;;;;287.73;125.10;;;;;;;2.55;74.76;100285.05;258245;1112;23244;-71
2021/03/02 22:01:03;;;;;;;276.90;120.63;;;;;;;2.50;75.22;100282.18;258203;1112;23021;-72
2021/03/02 22:06:05;;;;;;;299.07;126.10;;;;;;;2.49;75.33;100296.44;258178;1110;23036;-72
2021/03/02 22:11:07;;;;;;;323.17;130.30;;;;;;;2.46;75.43;100288.88;258105;1111;23387;-72
2021/03/02 22:16:09;;;;;;;304.27;121.47;;;;;;;2.44;75.96;100282.17;258156;1112;23110;-72
2021/03/02 22:21:12;;;;;;;316.17;130.97;;;;;;;2.44;75.70;100282.98;258257;1111;23037;-72
2021/03/02 22:26:14;;;;;;;308.90;127.80;;;;;;;2.40;76.00;100281.74;258173;1110;23024;-73
2021/03/02 22:31:22;;;;;;;315.00;126.75;;;;;;;2.34;76.09;100282.55;258508;1110;23295;-72
2021/03/02 22:36:25;;;;;;;283.63;121.27;;;;;;;2.25;75.86;100279.23;258144;1111;23163;-72
2021/03/02 22:41:27;;;;;;;299.10;122.53;;;;;;;2.14;75.88;100266.56;258146;1112;23084;-72
2021/03/02 22:46:29;;;;;;;269.33;116.70;;;;;;;2.08;75.86;100264.72;258096;1111;23356;-72
2021/03/02 22:51:31;;;;;;;280.30;116.60;;;;;;;2.02;75.91;100271.61;258164;1111;23102;-72
2021/03/02 22:56:33;;;;;;;299.20;119.30;;;;;;;1.99;76.70;100266.72;258105;1112;23109;-73
2021/03/02 23:01:42;;;;;;;267.87;104.30;;;;;;;1.97;76.58;100274.84;258165;1111;23532;-73